createdAt,value
2023-02-13T00:02:01.419Z,94113.81
2023-02-13T00:05:04.726Z,94112.00
2023-02-13T00:08:08.088Z,94123.41
2023-02-13T00:11:11.409Z,94115.19
2023-02-13T00:14:14.670Z,94107.25
2023-02-13T00:17:17.986Z,94121.59
2023-02-13T00:20:21.416Z,94126.88
2023-02-13T00:23:24.783Z,94119.44
2023-02-13T00:26:28.114Z,94124.69
2023-02-13T00:29:33.612Z,94128.66
2023-02-13T00:32:37.173Z,94125.31
2023-02-13T00:35:40.454Z,94122.84
2023-02-13T00:38:44.876Z,94117.63
2023-02-13T00:41:48.450Z,94119.03
2023-02-13T00:44:51.802Z,94120.94
2023-02-13T00:47:57.094Z,94122.50
2023-02-13T00:51:00.811Z,94114.75
2023-02-13T00:54:06.433Z,94121.56
2023-02-13T00:57:09.940Z,94120.78
2023-02-13T01:00:13.870Z,94123.16
2023-02-13T01:03:18.757Z,94125.41
2023-02-13T01:06:22.112Z,94117.66
2023-02-13T01:09:26.346Z,94120.38
2023-02-13T01:12:29.660Z,94122.44
2023-02-13T01:15:33.470Z,94125.53
2023-02-13T01:18:37.008Z,94120.44
2023-02-13T01:21:40.556Z,94114.34
2023-02-13T01:24:43.888Z,94117.25
2023-02-13T01:27:47.285Z,94123.03
2023-02-13T01:30:59.793Z,94110.81
2023-02-13T01:34:03.539Z,94112.16
2023-02-13T01:37:06.815Z,94124.22
2023-02-13T01:40:13.422Z,94125.38
2023-02-13T01:43:16.713Z,94140.31
2023-02-13T01:46:43.586Z,94132.16
2023-02-13T01:49:48.732Z,94131.94
2023-02-13T01:53:01.485Z,94127.97
2023-02-13T01:56:29.303Z,94118.41
2023-02-13T01:59:43.162Z,94121.72
2023-02-13T02:02:55.291Z,94116.75
2023-02-13T02:06:03.715Z,94118.38
2023-02-13T02:09:14.697Z,94117.13
2023-02-13T02:12:38.801Z,94114.53
2023-02-13T02:15:43.942Z,94118.91
2023-02-13T02:18:47.442Z,94120.59
2023-02-13T02:22:20.054Z,94114.94
2023-02-13T02:26:06.785Z,94111.75
2023-02-13T02:29:28.840Z,94115.59
2023-02-13T02:33:10.383Z,94114.72
2023-02-13T02:36:31.552Z,94114.28
2023-02-13T02:40:02.885Z,94112.50
2023-02-13T02:43:24.906Z,94108.00
2023-02-13T02:47:14.647Z,94111.53
2023-02-13T02:51:14.984Z,94111.38
2023-02-13T02:54:45.852Z,94113.84
2023-02-13T02:58:19.196Z,94102.88
2023-02-13T03:01:44.463Z,94107.28
2023-02-13T03:05:10.740Z,94105.97
2023-02-13T03:08:15.093Z,94099.03
2023-02-13T03:11:37.356Z,94104.06
2023-02-13T03:14:40.853Z,94091.53
2023-02-13T03:18:03.212Z,94080.94
2023-02-13T03:21:35.472Z,94080.81
2023-02-13T03:24:59.524Z,94088.19
2023-02-13T03:28:34.668Z,94080.13
2023-02-13T03:31:54.686Z,94086.75
2023-02-13T03:35:46.682Z,94078.50
2023-02-13T03:38:59.088Z,94071.78
2023-02-13T03:42:09.815Z,94075.00
2023-02-13T03:45:38.714Z,94075.72
2023-02-13T03:49:02.865Z,94083.03
2023-02-13T03:52:15.479Z,94083.31
2023-02-13T03:55:40.209Z,94071.16
2023-02-13T03:59:15.522Z,94067.41
2023-02-13T04:02:23.580Z,94055.13
2023-02-13T04:05:30.212Z,94050.69
2023-02-13T04:08:33.718Z,94044.59
2023-02-13T04:11:54.113Z,94039.19
2023-02-13T04:15:05.297Z,94043.38
2023-02-13T04:18:29.437Z,94037.97
2023-02-13T04:21:38.756Z,94031.06
2023-02-13T04:24:42.313Z,94015.25
2023-02-13T04:27:45.635Z,94020.94
2023-02-13T04:30:49.147Z,94002.13
2023-02-13T04:33:52.482Z,93994.38
2023-02-13T04:36:55.755Z,93992.38
2023-02-13T04:39:59.043Z,93993.25
2023-02-13T04:43:02.984Z,93993.47
2023-02-13T04:46:09.618Z,93990.84
2023-02-13T04:49:12.923Z,93986.84
2023-02-13T04:52:16.538Z,93991.56
2023-02-13T04:55:19.950Z,93969.69
2023-02-13T04:58:23.159Z,93981.03
2023-02-13T05:01:26.531Z,93982.09
2023-02-13T05:04:29.825Z,93979.38
2023-02-13T05:07:33.139Z,93976.91
2023-02-13T05:10:37.030Z,93969.25
2023-02-13T05:13:41.144Z,93965.56
2023-02-13T05:16:48.015Z,93955.81
2023-02-13T05:19:51.824Z,93957.06
2023-02-13T05:23:14.031Z,93957.28
2023-02-13T05:26:17.781Z,93951.28
2023-02-13T05:29:23.409Z,93948.28
2023-02-13T05:32:27.379Z,93942.34
2023-02-13T05:35:31.242Z,93938.91
2023-02-13T05:38:37.763Z,93937.78
2023-02-13T05:41:44.305Z,93932.22
2023-02-13T05:44:51.111Z,93926.75
2023-02-13T05:47:55.982Z,93926.66
2023-02-13T05:51:00.268Z,93932.00
2023-02-13T05:54:04.073Z,93924.28
2023-02-13T05:57:10.628Z,93936.72
2023-02-13T06:00:15.936Z,93930.44
2023-02-13T06:03:20.081Z,93924.63
2023-02-13T06:06:24.163Z,93915.91
2023-02-13T06:09:27.924Z,93919.47
2023-02-13T06:12:35.498Z,93915.66
2023-02-13T06:15:43.193Z,93913.50
2023-02-13T06:18:49.997Z,93908.47
2023-02-13T06:21:56.480Z,93909.34
2023-02-13T06:25:03.702Z,93904.22
2023-02-13T06:28:08.164Z,93898.28
2023-02-13T06:31:18.854Z,93885.31
2023-02-13T06:34:22.924Z,93895.56
2023-02-13T06:37:30.194Z,93892.72
2023-02-13T06:40:34.627Z,93895.41
2023-02-13T06:43:40.954Z,93894.94
2023-02-13T06:46:44.802Z,93882.00
2023-02-13T06:49:49.228Z,93881.28
2023-02-13T06:52:53.862Z,93877.81
2023-02-13T06:56:00.004Z,93878.88
2023-02-13T06:59:04.109Z,93882.78
2023-02-13T07:02:08.193Z,93881.75
2023-02-13T07:05:12.341Z,93882.63
2023-02-13T07:08:15.633Z,93883.88
2023-02-13T07:11:20.496Z,93882.06
2023-02-13T07:14:23.544Z,93882.66
2023-02-13T07:17:27.489Z,93875.78
2023-02-13T07:20:31.051Z,93877.00
2023-02-13T07:23:34.341Z,93875.19
2023-02-13T07:26:37.583Z,93868.13
2023-02-13T07:29:40.870Z,93868.69
2023-02-13T07:32:44.134Z,93865.47
2023-02-13T07:35:48.621Z,93862.41
2023-02-13T07:38:51.797Z,93862.47
2023-02-13T07:41:55.041Z,93853.44
2023-02-13T07:45:02.450Z,93864.56
2023-02-13T07:48:05.725Z,93865.91
2023-02-13T07:51:08.963Z,93873.19
2023-02-13T07:54:12.188Z,93871.56
2023-02-13T07:57:16.514Z,93876.72
2023-02-13T08:00:20.989Z,93871.34
2023-02-13T08:03:24.585Z,93874.59
2023-02-13T08:06:28.034Z,93873.25
2023-02-13T08:09:49.665Z,93872.47
2023-02-13T08:12:53.854Z,93875.44
2023-02-13T08:15:57.580Z,93868.84
2023-02-13T08:19:01.242Z,93868.63
2023-02-13T08:22:04.773Z,93867.66
2023-02-13T08:25:08.703Z,93863.72
2023-02-13T08:28:12.030Z,93876.03
2023-02-13T08:31:15.299Z,93857.13
2023-02-13T08:34:19.613Z,93863.97
2023-02-13T08:37:22.876Z,93851.66
2023-02-13T08:40:26.143Z,93861.50
2023-02-13T08:43:29.418Z,93855.56
2023-02-13T08:46:32.741Z,93859.75
2023-02-13T08:49:36.601Z,93852.59
2023-02-13T08:52:39.835Z,93847.81
2023-02-13T08:55:43.272Z,93852.22
2023-02-13T08:58:50.344Z,93851.03
2023-02-13T09:01:53.766Z,93850.69
2023-02-13T09:04:57.161Z,93843.44
2023-02-13T09:08:04.684Z,93848.03
2023-02-13T09:11:11.315Z,93846.84
2023-02-13T09:14:14.566Z,93852.13
2023-02-13T09:17:19.749Z,93855.97
2023-02-13T09:20:23.240Z,93856.63
2023-02-13T09:23:26.977Z,93848.25
2023-02-13T09:26:30.222Z,93851.72
2023-02-13T09:29:34.581Z,93851.59
2023-02-13T09:32:41.313Z,93856.75
2023-02-13T09:35:44.869Z,93854.16
2023-02-13T09:38:58.773Z,93861.50
2023-02-13T09:42:02.796Z,93866.75
2023-02-13T09:45:07.803Z,93872.78
2023-02-13T09:48:19.819Z,93867.59
2023-02-13T09:51:26.409Z,93870.81
2023-02-13T09:54:32.409Z,93870.66
2023-02-13T09:57:41.299Z,93871.16
2023-02-13T10:00:50.967Z,93875.69
2023-02-13T10:04:09.291Z,93876.97
2023-02-13T10:07:57.712Z,93884.31
2023-02-13T10:11:28.265Z,93892.16
2023-02-13T10:14:49.759Z,93892.66
2023-02-13T10:18:35.124Z,93890.31
2023-02-13T10:21:44.598Z,93896.97
2023-02-13T10:24:50.621Z,93895.66
2023-02-13T10:28:16.084Z,93898.66
2023-02-13T10:31:24.145Z,93896.53
2023-02-13T10:34:32.673Z,93897.63
2023-02-13T10:37:37.193Z,93903.53
2023-02-13T10:40:45.148Z,93911.66
2023-02-13T10:44:00.644Z,93912.72
2023-02-13T10:47:37.518Z,93916.00
2023-02-13T10:50:54.600Z,93923.91
2023-02-13T10:54:19.265Z,93917.88
2023-02-13T10:57:44.252Z,93923.13
2023-02-13T11:01:18.255Z,93923.25
2023-02-13T11:04:21.988Z,93932.94
2023-02-13T11:07:27.953Z,93936.16
2023-02-13T11:10:31.180Z,93934.13
2023-02-13T11:13:34.556Z,93931.72
2023-02-13T11:16:49.007Z,93943.69
2023-02-13T11:20:02.025Z,93940.56
2023-02-13T11:23:43.678Z,93941.34
2023-02-13T11:26:53.092Z,93943.44
2023-02-13T11:29:59.100Z,93942.72
2023-02-13T11:33:24.079Z,93940.13
2023-02-13T11:36:35.034Z,93943.16
2023-02-13T11:39:38.458Z,93938.16
2023-02-13T11:42:45.146Z,93939.25
2023-02-13T11:45:48.849Z,93942.41
2023-02-13T11:49:09.660Z,93951.28
2023-02-13T11:52:29.358Z,93957.19
2023-02-13T11:55:36.947Z,93959.22
2023-02-13T11:58:43.762Z,93948.72
2023-02-13T12:01:51.084Z,93972.91
2023-02-13T12:04:56.959Z,93972.75
2023-02-13T12:08:02.477Z,93968.94
2023-02-13T12:11:23.373Z,93969.66
2023-02-13T12:14:36.751Z,93973.59
2023-02-13T12:17:45.446Z,93979.38
2023-02-13T12:21:33.213Z,93962.31
2023-02-13T12:24:49.510Z,93974.41
2023-02-13T12:28:17.021Z,93970.28
2023-02-13T12:31:41.883Z,93977.31
2023-02-13T12:35:09.819Z,93985.47
2023-02-13T12:38:40.703Z,93982.13
2023-02-13T12:42:11.326Z,93981.59
2023-02-13T12:45:32.945Z,93984.19
2023-02-13T12:48:59.213Z,93987.94
2023-02-13T12:52:21.659Z,93986.59
2023-02-13T12:55:48.416Z,93991.31
2023-02-13T12:59:28.654Z,93986.22
2023-02-13T13:02:51.892Z,93985.53
2023-02-13T13:06:23.433Z,93975.91
2023-02-13T13:09:46.431Z,93980.53
2023-02-13T13:13:34.153Z,93976.00
2023-02-13T13:17:03.803Z,93973.78
2023-02-13T13:20:29.678Z,93971.09
2023-02-13T13:23:37.454Z,93971.75
2023-02-13T13:26:44.892Z,93980.16
2023-02-13T13:29:55.836Z,93967.84
2023-02-13T13:33:05.791Z,93971.97
2023-02-13T13:36:16.794Z,93967.53
2023-02-13T13:39:49.823Z,93968.91
2023-02-13T13:42:57.342Z,93967.75
2023-02-13T13:46:16.468Z,93969.13
2023-02-13T13:49:52.807Z,93955.22
2023-02-13T13:53:12.116Z,93958.66
2023-02-13T13:56:15.679Z,93964.69
2023-02-13T13:59:40.347Z,93955.88
2023-02-13T14:02:51.162Z,93959.19
2023-02-13T14:06:02.103Z,93962.22
2023-02-13T14:09:07.853Z,93957.78
2023-02-13T14:12:26.630Z,93960.66
2023-02-13T14:15:51.279Z,93966.94
2023-02-13T14:18:54.706Z,93974.09
2023-02-13T14:22:25.661Z,93975.44
2023-02-13T14:25:29.616Z,93984.28
2023-02-13T14:28:33.429Z,93983.09
2023-02-13T14:31:43.279Z,93980.34
2023-02-13T14:34:56.043Z,93976.44
2023-02-13T14:38:01.911Z,93976.03
2023-02-13T14:41:07.970Z,93979.91
2023-02-13T14:44:23.533Z,93977.78
2023-02-13T14:47:34.498Z,93981.84
2023-02-13T14:50:51.202Z,93978.69
2023-02-13T14:53:59.764Z,93977.34
2023-02-13T14:57:24.447Z,93976.00
2023-02-13T15:00:38.908Z,93969.72
2023-02-13T15:03:55.217Z,93987.38
2023-02-13T15:07:01.376Z,93984.34
2023-02-13T15:10:38.961Z,93984.19
2023-02-13T15:13:42.268Z,93987.56
2023-02-13T15:16:49.024Z,93979.13
2023-02-13T15:20:13.791Z,93986.44
2023-02-13T15:23:29.262Z,93989.00
2023-02-13T15:26:32.717Z,93982.38
2023-02-13T15:29:49.279Z,93982.53
2023-02-13T15:32:58.510Z,93977.13
2023-02-13T15:36:06.045Z,93973.56
2023-02-13T15:39:19.118Z,93964.56
2023-02-13T15:42:22.835Z,93967.78
2023-02-13T15:45:28.983Z,93964.22
2023-02-13T15:48:34.715Z,93965.56
2023-02-13T15:51:37.967Z,93960.63
2023-02-13T15:54:52.652Z,93969.44
2023-02-13T15:57:58.525Z,93971.84
2023-02-13T16:01:12.969Z,93968.78
2023-02-13T16:04:18.722Z,93969.31
2023-02-13T16:07:22.454Z,93961.69
2023-02-13T16:10:34.831Z,93963.38
2023-02-13T16:13:38.282Z,93972.41
2023-02-13T16:17:00.265Z,93982.41
2023-02-13T16:20:23.242Z,93990.56
2023-02-13T16:23:26.512Z,93984.94
2023-02-13T16:26:30.206Z,93990.50
2023-02-13T16:29:33.529Z,93991.00
2023-02-13T16:32:42.053Z,93992.53
2023-02-13T16:35:49.701Z,93994.22
2023-02-13T16:38:52.952Z,94002.50
2023-02-13T16:41:56.514Z,94010.63
2023-02-13T16:45:24.872Z,94007.56
2023-02-13T16:48:28.120Z,94013.63
2023-02-13T16:51:31.358Z,94025.44
2023-02-13T16:54:38.922Z,94030.69
2023-02-13T16:57:44.161Z,94028.81
2023-02-13T17:00:52.015Z,94033.59
2023-02-13T17:03:55.285Z,94027.88
2023-02-13T17:06:58.628Z,94030.44
2023-02-13T17:10:05.624Z,94035.34
2023-02-13T17:13:19.948Z,94035.72
2023-02-13T17:16:23.226Z,94025.72
2023-02-13T17:19:26.478Z,94036.06
2023-02-13T17:22:35.604Z,94030.94
2023-02-13T17:25:39.678Z,94039.38
2023-02-13T17:28:43.150Z,94029.16
2023-02-13T17:31:46.681Z,94015.72
2023-02-13T17:34:50.151Z,94028.25
2023-02-13T17:37:53.693Z,94038.38
2023-02-13T17:40:57.275Z,94041.19
2023-02-13T17:44:00.632Z,94038.50
2023-02-13T17:47:03.875Z,94044.56
2023-02-13T17:50:10.603Z,94042.34
2023-02-13T17:53:30.876Z,94031.91
2023-02-13T17:56:34.198Z,94021.66
2023-02-13T17:59:37.364Z,94022.16
2023-02-13T18:02:43.097Z,94028.38
2023-02-13T18:05:49.311Z,94028.03
2023-02-13T18:08:53.035Z,94034.41
2023-02-13T18:12:05.150Z,94034.06
2023-02-13T18:15:09.536Z,94032.19
2023-02-13T18:18:15.022Z,94027.09
2023-02-13T18:21:18.498Z,94026.66
2023-02-13T18:24:22.160Z,94028.97
2023-02-13T18:27:27.672Z,94023.31
2023-02-13T18:30:31.024Z,94016.84
2023-02-13T18:33:34.308Z,94026.19
2023-02-13T18:36:37.699Z,94011.50
2023-02-13T18:39:41.773Z,94021.81
2023-02-13T18:42:45.938Z,94023.66
2023-02-13T18:45:49.263Z,94018.38
2023-02-13T18:48:52.612Z,94016.13
2023-02-13T18:51:56.045Z,94006.81
2023-02-13T18:55:01.140Z,94000.56
2023-02-13T18:58:05.169Z,94008.56
2023-02-13T19:01:13.411Z,94013.03
2023-02-13T19:04:16.912Z,94010.72
2023-02-13T19:07:20.247Z,94009.66
2023-02-13T19:10:23.756Z,94011.59
2023-02-13T19:13:26.985Z,94011.81
2023-02-13T19:16:32.848Z,94011.22
2023-02-13T19:19:36.109Z,94005.97
2023-02-13T19:22:39.376Z,94006.34
2023-02-13T19:25:42.551Z,94002.25
2023-02-13T19:28:45.987Z,94002.22
2023-02-13T19:31:49.278Z,94008.03
2023-02-13T19:34:52.898Z,94000.72
2023-02-13T19:37:56.177Z,94002.56
2023-02-13T19:41:05.244Z,94001.81
2023-02-13T19:44:09.397Z,93996.28
2023-02-13T19:47:12.714Z,93983.28
2023-02-13T19:50:18.332Z,93983.59
2023-02-13T19:53:21.683Z,93982.03
2023-02-13T19:56:27.202Z,93980.81
2023-02-13T19:59:31.662Z,93967.28
2023-02-13T20:02:36.200Z,93970.34
2023-02-13T20:05:41.369Z,93964.59
2023-02-13T20:08:45.165Z,93970.63
2023-02-13T20:11:48.430Z,93969.94
2023-02-13T20:14:51.670Z,93974.72
2023-02-13T20:17:54.900Z,93967.13
2023-02-13T20:20:58.404Z,93965.22
2023-02-13T20:24:03.530Z,93967.59
2023-02-13T20:27:06.721Z,93954.59
2023-02-13T20:30:11.537Z,93952.22
2023-02-13T20:33:14.918Z,93949.44
2023-02-13T20:36:23.598Z,93952.66
2023-02-13T20:39:26.824Z,93949.44
2023-02-13T20:42:32.731Z,93948.81
2023-02-13T20:45:36.019Z,93945.16
2023-02-13T20:48:41.022Z,93946.31
2023-02-13T20:51:44.218Z,93948.34
2023-02-13T20:54:48.116Z,93950.25
2023-02-13T20:57:51.282Z,93956.66
2023-02-13T21:00:54.741Z,93966.97
2023-02-13T21:03:58.104Z,93972.94
2023-02-13T21:07:01.394Z,93970.63
2023-02-13T21:10:06.451Z,93963.81
2023-02-13T21:13:11.277Z,93964.19
2023-02-13T21:16:24.388Z,93969.41
2023-02-13T21:19:28.664Z,93967.00
2023-02-13T21:22:32.999Z,93971.63
2023-02-13T21:25:36.833Z,93969.53
2023-02-13T21:28:40.966Z,93965.81
2023-02-13T21:31:49.718Z,93951.31
2023-02-13T21:34:56.666Z,93960.06
2023-02-13T21:37:59.889Z,93954.75
2023-02-13T21:41:07.288Z,93950.22
2023-02-13T21:44:15.362Z,93953.34
2023-02-13T21:47:18.881Z,93946.47
2023-02-13T21:50:22.984Z,93947.59
2023-02-13T21:53:26.381Z,93940.44
2023-02-13T21:56:32.084Z,93940.41
2023-02-13T21:59:35.889Z,93938.38
2023-02-13T22:02:40.362Z,93928.22
2023-02-13T22:05:48.223Z,93932.78
2023-02-13T22:08:57.476Z,93934.09
2023-02-13T22:12:00.742Z,93929.50
2023-02-13T22:15:04.980Z,93931.75
2023-02-13T22:18:07.868Z,93928.97
2023-02-13T22:21:16.783Z,93928.94
2023-02-13T22:24:20.315Z,93924.31
2023-02-13T22:27:23.662Z,93930.78
2023-02-13T22:30:26.919Z,93924.97
2023-02-13T22:33:30.355Z,93929.63
2023-02-13T22:36:41.174Z,93925.22
2023-02-13T22:39:44.400Z,93923.09
2023-02-13T22:42:47.670Z,93925.78
2023-02-13T22:45:50.916Z,93924.66
2023-02-13T22:48:54.811Z,93924.13
2023-02-13T22:51:58.160Z,93930.53
2023-02-13T22:55:01.728Z,93929.91
2023-02-13T22:58:05.024Z,93931.63
2023-02-13T23:01:14.075Z,93934.94
2023-02-13T23:04:23.819Z,93944.06
2023-02-13T23:07:27.308Z,93934.94
2023-02-13T23:10:30.576Z,93940.22
2023-02-13T23:13:33.772Z,93940.72
2023-02-13T23:16:57.498Z,93942.38
2023-02-13T23:20:00.977Z,93946.38
2023-02-13T23:23:04.908Z,93938.81
2023-02-13T23:26:08.797Z,93949.75
2023-02-13T23:29:12.153Z,93943.06
2023-02-13T23:32:15.502Z,93937.72
2023-02-13T23:35:18.831Z,93939.66
2023-02-13T23:38:23.578Z,93934.88
2023-02-13T23:41:26.874Z,93925.56
2023-02-13T23:44:30.700Z,93922.81
2023-02-13T23:47:34.063Z,93921.94
2023-02-13T23:50:37.308Z,93930.34
2023-02-13T23:53:40.881Z,93933.69
2023-02-13T23:56:44.607Z,93932.72
2023-02-13T23:59:47.803Z,93932.72
